sensor_id;sensor_type;location;lat;lon;timestamp;temperature;humidity
1297;DHT22;641;48.492;9.184;2022-09-29T00:01:53;10.70;99.90
1297;DHT22;641;48.492;9.184;2022-09-29T00:04:18;10.70;99.90
1297;DHT22;641;48.492;9.184;2022-09-29T00:06:44;10.70;99.90
1297;DHT22;641;48.492;9.184;2022-09-29T00:09:10;10.70;99.90
1297;DHT22;641;48.492;9.184;2022-09-29T00:11:36;10.70;99.90
1297;DHT22;641;48.492;9.184;2022-09-29T00:14:01;11.20;99.90
1297;DHT22;641;48.492;9.184;2022-09-29T00:16:27;10.70;99.90
1297;DHT22;641;48.492;9.184;2022-09-29T00:18:54;10.90;99.90
1297;DHT22;641;48.492;9.184;2022-09-29T00:21:20;11.00;99.90
1297;DHT22;641;48.492;9.184;2022-09-29T00:23:47;11.20;99.90
1297;DHT22;641;48.492;9.184;2022-09-29T00:26:21;10.70;99.90
1297;DHT22;641;48.492;9.184;2022-09-29T00:28:50;11.00;99.90
1297;DHT22;641;48.492;9.184;2022-09-29T00:31:20;10.70;99.90
1297;DHT22;641;48.492;9.184;2022-09-29T00:33:45;10.50;99.90
1297;DHT22;641;48.492;9.184;2022-09-29T00:36:14;10.50;99.90
1297;DHT22;641;48.492;9.184;2022-09-29T00:38:41;10.60;99.90
1297;DHT22;641;48.492;9.184;2022-09-29T00:41:10;11.00;99.90
1297;DHT22;641;48.492;9.184;2022-09-29T00:43:51;10.70;99.90
1297;DHT22;641;48.492;9.184;2022-09-29T00:49:39;10.70;99.90
1297;DHT22;641;48.492;9.184;2022-09-29T00:52:18;10.70;99.90
1297;DHT22;641;48.492;9.184;2022-09-29T00:54:52;10.70;99.90
1297;DHT22;641;48.492;9.184;2022-09-29T00:57:23;10.80;99.90
1297;DHT22;641;48.492;9.184;2022-09-29T01:00:03;10.80;99.90
1297;DHT22;641;48.492;9.184;2022-09-29T01:02:32;10.80;99.90
1297;DHT22;641;48.492;9.184;2022-09-29T01:05:00;10.80;99.90
1297;DHT22;641;48.492;9.184;2022-09-29T01:07:28;10.80;99.90
1297;DHT22;641;48.492;9.184;2022-09-29T01:09:55;10.80;99.90
1297;DHT22;641;48.492;9.184;2022-09-29T01:12:22;10.70;99.90
1297;DHT22;641;48.492;9.184;2022-09-29T01:14:48;10.60;99.90
1297;DHT22;641;48.492;9.184;2022-09-29T01:17:14;10.60;99.90
1297;DHT22;641;48.492;9.184;2022-09-29T01:20:05;10.70;99.90
1297;DHT22;641;48.492;9.184;2022-09-29T01:29:04;10.70;99.90
1297;DHT22;641;48.492;9.184;2022-09-29T01:34:45;10.80;99.90
1297;DHT22;641;48.492;9.184;2022-09-29T01:40:01;10.90;99.90
1297;DHT22;641;48.492;9.184;2022-09-29T01:42:54;10.90;99.90
1297;DHT22;641;48.492;9.184;2022-09-29T01:45:33;11.50;99.90
1297;DHT22;641;48.492;9.184;2022-09-29T01:48:06;10.90;99.90
1297;DHT22;641;48.492;9.184;2022-09-29T01:50:46;11.30;99.90
1297;DHT22;641;48.492;9.184;2022-09-29T01:53:16;10.90;99.90
1297;DHT22;641;48.492;9.184;2022-09-29T01:55:47;10.90;99.90
1297;DHT22;641;48.492;9.184;2022-09-29T01:58:22;11.40;99.90
1297;DHT22;641;48.492;9.184;2022-09-29T02:00:54;11.30;99.90
1297;DHT22;641;48.492;9.184;2022-09-29T02:03:31;10.90;99.90
1297;DHT22;641;48.492;9.184;2022-09-29T02:06:05;10.90;99.90
1297;DHT22;641;48.492;9.184;2022-09-29T02:08:54;10.90;99.90
1297;DHT22;641;48.492;9.184;2022-09-29T02:11:20;11.40;99.90
1297;DHT22;641;48.492;9.184;2022-09-29T02:14:13;10.90;99.90
1297;DHT22;641;48.492;9.184;2022-09-29T02:16:47;10.90;99.90
1297;DHT22;641;48.492;9.184;2022-09-29T02:19:23;10.80;99.90
1297;DHT22;641;48.492;9.184;2022-09-29T02:21:49;10.80;99.90
1297;DHT22;641;48.492;9.184;2022-09-29T02:24:19;11.10;99.90
1297;DHT22;641;48.492;9.184;2022-09-29T02:26:45;11.00;99.90
1297;DHT22;641;48.492;9.184;2022-09-29T02:29:11;10.50;99.90
1297;DHT22;641;48.492;9.184;2022-09-29T02:31:38;10.90;99.90
1297;DHT22;641;48.492;9.184;2022-09-29T02:34:06;10.50;99.90
1297;DHT22;641;48.492;9.184;2022-09-29T02:36:47;10.60;99.90
1297;DHT22;641;48.492;9.184;2022-09-29T02:52:48;10.80;99.90
1297;DHT22;641;48.492;9.184;2022-09-29T02:55:55;10.80;99.90
1297;DHT22;641;48.492;9.184;2022-09-29T02:58:18;10.70;99.90
1297;DHT22;641;48.492;9.184;2022-09-29T03:00:45;10.80;99.90
1297;DHT22;641;48.492;9.184;2022-09-29T03:03:11;11.20;99.90
1297;DHT22;641;48.492;9.184;2022-09-29T03:05:37;10.80;99.90
1297;DHT22;641;48.492;9.184;2022-09-29T03:08:03;10.90;99.90
1297;DHT22;641;48.492;9.184;2022-09-29T03:10:28;10.90;99.90
1297;DHT22;641;48.492;9.184;2022-09-29T03:12:54;10.90;99.90
1297;DHT22;641;48.492;9.184;2022-09-29T03:15:19;10.90;99.90
1297;DHT22;641;48.492;9.184;2022-09-29T03:17:45;10.70;99.90
1297;DHT22;641;48.492;9.184;2022-09-29T03:20:11;10.50;99.90
1297;DHT22;641;48.492;9.184;2022-09-29T03:22:37;10.70;99.90
1297;DHT22;641;48.492;9.184;2022-09-29T03:25:04;10.80;99.90
1297;DHT22;641;48.492;9.184;2022-09-29T03:27:31;10.80;99.90
1297;DHT22;641;48.492;9.184;2022-09-29T03:29:56;10.70;99.90
1297;DHT22;641;48.492;9.184;2022-09-29T03:32:22;11.20;99.90
1297;DHT22;641;48.492;9.184;2022-09-29T03:34:47;10.80;99.90
1297;DHT22;641;48.492;9.184;2022-09-29T03:37:13;10.80;99.90
1297;DHT22;641;48.492;9.184;2022-09-29T03:39:39;10.90;99.90
1297;DHT22;641;48.492;9.184;2022-09-29T03:42:04;10.90;99.90
1297;DHT22;641;48.492;9.184;2022-09-29T03:44:30;11.00;99.90
1297;DHT22;641;48.492;9.184;2022-09-29T03:46:56;11.40;99.90
1297;DHT22;641;48.492;9.184;2022-09-29T03:49:21;11.00;99.90
1297;DHT22;641;48.492;9.184;2022-09-29T03:51:47;10.90;99.90
1297;DHT22;641;48.492;9.184;2022-09-29T03:54:12;11.40;99.90
1297;DHT22;641;48.492;9.184;2022-09-29T03:56:38;10.90;99.90
1297;DHT22;641;48.492;9.184;2022-09-29T03:59:05;10.80;99.90
1297;DHT22;641;48.492;9.184;2022-09-29T04:01:34;11.20;99.90
1297;DHT22;641;48.492;9.184;2022-09-29T04:04:00;10.80;99.90
1297;DHT22;641;48.492;9.184;2022-09-29T04:06:25;10.80;99.90
1297;DHT22;641;48.492;9.184;2022-09-29T04:08:51;10.90;99.90
1297;DHT22;641;48.492;9.184;2022-09-29T04:11:16;10.90;99.90
1297;DHT22;641;48.492;9.184;2022-09-29T04:13:42;10.90;99.90
1297;DHT22;641;48.492;9.184;2022-09-29T04:16:08;10.90;99.90
1297;DHT22;641;48.492;9.184;2022-09-29T04:18:33;11.00;99.90
1297;DHT22;641;48.492;9.184;2022-09-29T04:21:07;11.00;99.90
1297;DHT22;641;48.492;9.184;2022-09-29T04:23:33;11.00;99.90
1297;DHT22;641;48.492;9.184;2022-09-29T04:25:59;10.90;99.90
1297;DHT22;641;48.492;9.184;2022-09-29T04:28:31;10.90;99.90
1297;DHT22;641;48.492;9.184;2022-09-29T04:30:56;10.90;99.90
1297;DHT22;641;48.492;9.184;2022-09-29T04:33:22;11.00;99.90
1297;DHT22;641;48.492;9.184;2022-09-29T04:35:48;11.10;99.90
1297;DHT22;641;48.492;9.184;2022-09-29T04:38:13;11.50;99.90
1297;DHT22;641;48.492;9.184;2022-09-29T04:40:39;11.00;99.90
1297;DHT22;641;48.492;9.184;2022-09-29T04:43:04;10.90;99.90
1297;DHT22;641;48.492;9.184;2022-09-29T04:45:30;11.00;99.90
1297;DHT22;641;48.492;9.184;2022-09-29T04:47:56;10.50;99.90
1297;DHT22;641;48.492;9.184;2022-09-29T04:50:22;10.50;99.90
1297;DHT22;641;48.492;9.184;2022-09-29T04:52:48;10.50;99.90
1297;DHT22;641;48.492;9.184;2022-09-29T04:55:13;10.50;99.90
1297;DHT22;641;48.492;9.184;2022-09-29T04:57:41;10.60;99.90
1297;DHT22;641;48.492;9.184;2022-09-29T05:00:08;10.60;99.90
1297;DHT22;641;48.492;9.184;2022-09-29T05:02:34;10.60;99.90
1297;DHT22;641;48.492;9.184;2022-09-29T05:05:00;10.60;99.90
1297;DHT22;641;48.492;9.184;2022-09-29T05:07:26;10.50;99.90
1297;DHT22;641;48.492;9.184;2022-09-29T05:09:51;10.40;99.90
1297;DHT22;641;48.492;9.184;2022-09-29T05:12:17;10.30;99.90
1297;DHT22;641;48.492;9.184;2022-09-29T05:14:43;10.30;99.90
1297;DHT22;641;48.492;9.184;2022-09-29T05:17:08;10.30;99.90
1297;DHT22;641;48.492;9.184;2022-09-29T05:19:34;10.30;99.90
1297;DHT22;641;48.492;9.184;2022-09-29T05:21:59;10.30;99.90
1297;DHT22;641;48.492;9.184;2022-09-29T05:24:25;10.40;99.90
1297;DHT22;641;48.492;9.184;2022-09-29T05:26:51;10.40;99.90
1297;DHT22;641;48.492;9.184;2022-09-29T05:29:17;10.50;99.90
1297;DHT22;641;48.492;9.184;2022-09-29T05:31:42;10.50;99.90
1297;DHT22;641;48.492;9.184;2022-09-29T05:34:08;10.60;99.90
1297;DHT22;641;48.492;9.184;2022-09-29T05:36:34;10.60;99.90
1297;DHT22;641;48.492;9.184;2022-09-29T05:38:59;10.70;99.90
1297;DHT22;641;48.492;9.184;2022-09-29T05:41:25;10.80;99.90
1297;DHT22;641;48.492;9.184;2022-09-29T05:43:51;10.90;99.90
1297;DHT22;641;48.492;9.184;2022-09-29T05:46:18;11.00;99.90
1297;DHT22;641;48.492;9.184;2022-09-29T05:48:48;11.10;99.90
1297;DHT22;641;48.492;9.184;2022-09-29T05:51:17;11.10;99.90
1297;DHT22;641;48.492;9.184;2022-09-29T05:53:43;11.10;99.90
1297;DHT22;641;48.492;9.184;2022-09-29T05:56:11;11.10;99.90
1297;DHT22;641;48.492;9.184;2022-09-29T05:58:39;11.50;99.90
1297;DHT22;641;48.492;9.184;2022-09-29T06:01:19;10.90;99.90
1297;DHT22;641;48.492;9.184;2022-09-29T06:03:45;10.90;99.90
1297;DHT22;641;48.492;9.184;2022-09-29T06:06:15;10.80;99.90
1297;DHT22;641;48.492;9.184;2022-09-29T06:08:42;10.80;99.90
1297;DHT22;641;48.492;9.184;2022-09-29T06:11:13;10.80;99.90
1297;DHT22;641;48.492;9.184;2022-09-29T06:13:42;10.80;99.90
1297;DHT22;641;48.492;9.184;2022-09-29T06:16:08;10.80;99.90
1297;DHT22;641;48.492;9.184;2022-09-29T06:18:35;10.70;99.90
1297;DHT22;641;48.492;9.184;2022-09-29T06:21:05;10.70;99.90
1297;DHT22;641;48.492;9.184;2022-09-29T06:23:32;10.70;99.90
1297;DHT22;641;48.492;9.184;2022-09-29T06:25:58;10.80;99.90
1297;DHT22;641;48.492;9.184;2022-09-29T06:28:27;10.80;99.90
1297;DHT22;641;48.492;9.184;2022-09-29T06:31:00;10.80;99.90
1297;DHT22;641;48.492;9.184;2022-09-29T06:33:28;10.90;99.90
1297;DHT22;641;48.492;9.184;2022-09-29T06:35:54;10.90;99.90
1297;DHT22;641;48.492;9.184;2022-09-29T06:38:38;11.00;99.90
1297;DHT22;641;48.492;9.184;2022-09-29T06:41:04;11.50;99.90
1297;DHT22;641;48.492;9.184;2022-09-29T06:43:30;11.50;99.90
1297;DHT22;641;48.492;9.184;2022-09-29T06:45:56;11.00;99.90
1297;DHT22;641;48.492;9.184;2022-09-29T06:48:21;11.00;99.90
1297;DHT22;641;48.492;9.184;2022-09-29T06:50:47;11.00;99.90
1297;DHT22;641;48.492;9.184;2022-09-29T06:53:13;11.00;99.90
1297;DHT22;641;48.492;9.184;2022-09-29T06:55:39;11.20;99.90
1297;DHT22;641;48.492;9.184;2022-09-29T06:58:04;11.30;99.90
1297;DHT22;641;48.492;9.184;2022-09-29T07:00:30;11.00;99.90
1297;DHT22;641;48.492;9.184;2022-09-29T07:02:57;10.90;99.90
1297;DHT22;641;48.492;9.184;2022-09-29T07:05:23;10.90;99.90
1297;DHT22;641;48.492;9.184;2022-09-29T07:07:49;11.00;99.90
1297;DHT22;641;48.492;9.184;2022-09-29T07:10:15;11.20;99.90
1297;DHT22;641;48.492;9.184;2022-09-29T07:12:40;11.30;99.90
1297;DHT22;641;48.492;9.184;2022-09-29T07:15:12;11.30;99.90
1297;DHT22;641;48.492;9.184;2022-09-29T07:17:38;11.30;99.90
1297;DHT22;641;48.492;9.184;2022-09-29T07:20:05;11.30;99.90
1297;DHT22;641;48.492;9.184;2022-09-29T07:22:31;11.30;99.90
1297;DHT22;641;48.492;9.184;2022-09-29T07:24:57;11.30;99.90
1297;DHT22;641;48.492;9.184;2022-09-29T07:27:23;11.40;99.90
1297;DHT22;641;48.492;9.184;2022-09-29T07:29:51;11.50;99.90
1297;DHT22;641;48.492;9.184;2022-09-29T07:32:18;11.50;99.90
1297;DHT22;641;48.492;9.184;2022-09-29T07:34:45;11.50;99.90
1297;DHT22;641;48.492;9.184;2022-09-29T07:37:11;11.60;99.90
1297;DHT22;641;48.492;9.184;2022-09-29T07:39:37;11.60;99.90
1297;DHT22;641;48.492;9.184;2022-09-29T07:42:02;11.70;99.90
1297;DHT22;641;48.492;9.184;2022-09-29T07:44:28;11.70;99.90
1297;DHT22;641;48.492;9.184;2022-09-29T07:46:56;11.70;99.90
1297;DHT22;641;48.492;9.184;2022-09-29T07:49:21;11.70;99.90
1297;DHT22;641;48.492;9.184;2022-09-29T07:51:47;11.70;99.90
1297;DHT22;641;48.492;9.184;2022-09-29T07:54:13;12.10;99.90
1297;DHT22;641;48.492;9.184;2022-09-29T07:56:38;11.80;99.90
1297;DHT22;641;48.492;9.184;2022-09-29T07:59:04;11.80;99.90
1297;DHT22;641;48.492;9.184;2022-09-29T08:01:30;11.80;99.90
1297;DHT22;641;48.492;9.184;2022-09-29T08:03:56;11.80;99.90
1297;DHT22;641;48.492;9.184;2022-09-29T08:06:23;11.90;99.90
1297;DHT22;641;48.492;9.184;2022-09-29T08:08:49;11.80;99.90
1297;DHT22;641;48.492;9.184;2022-09-29T08:11:17;11.80;99.90
1297;DHT22;641;48.492;9.184;2022-09-29T08:13:45;11.80;99.90
1297;DHT22;641;48.492;9.184;2022-09-29T08:16:12;11.60;99.90
1297;DHT22;641;48.492;9.184;2022-09-29T08:18:39;11.60;99.90
1297;DHT22;641;48.492;9.184;2022-09-29T08:21:05;11.80;99.90
1297;DHT22;641;48.492;9.184;2022-09-29T08:23:39;12.00;99.90
1297;DHT22;641;48.492;9.184;2022-09-29T08:26:13;12.10;99.90
1297;DHT22;641;48.492;9.184;2022-09-29T08:28:40;12.10;99.90
1297;DHT22;641;48.492;9.184;2022-09-29T08:31:14;12.30;99.90
1297;DHT22;641;48.492;9.184;2022-09-29T08:33:41;12.50;99.90
1297;DHT22;641;48.492;9.184;2022-09-29T08:36:07;12.60;99.90
1297;DHT22;641;48.492;9.184;2022-09-29T08:38:46;12.80;99.90
1297;DHT22;641;48.492;9.184;2022-09-29T08:46:41;12.60;99.90
1297;DHT22;641;48.492;9.184;2022-09-29T08:49:40;12.50;99.90
1297;DHT22;641;48.492;9.184;2022-09-29T08:52:21;12.40;99.90
1297;DHT22;641;48.492;9.184;2022-09-29T08:54:52;12.50;99.90
1297;DHT22;641;48.492;9.184;2022-09-29T08:57:19;12.70;99.90
1297;DHT22;641;48.492;9.184;2022-09-29T08:59:56;13.00;99.90
1297;DHT22;641;48.492;9.184;2022-09-29T09:02:46;13.10;99.90
1297;DHT22;641;48.492;9.184;2022-09-29T09:13:17;13.10;99.90
1297;DHT22;641;48.492;9.184;2022-09-29T09:18:50;13.40;99.90
1297;DHT22;641;48.492;9.184;2022-09-29T09:21:33;13.50;99.90
1297;DHT22;641;48.492;9.184;2022-09-29T09:24:21;13.60;99.90
1297;DHT22;641;48.492;9.184;2022-09-29T09:26:50;13.70;99.90
1297;DHT22;641;48.492;9.184;2022-09-29T09:29:38;13.80;99.90
1297;DHT22;641;48.492;9.184;2022-09-29T09:32:13;13.90;99.90
1297;DHT22;641;48.492;9.184;2022-09-29T09:34:48;13.90;99.90
1297;DHT22;641;48.492;9.184;2022-09-29T09:37:21;14.00;99.90
1297;DHT22;641;48.492;9.184;2022-09-29T09:40:04;13.90;99.90
1297;DHT22;641;48.492;9.184;2022-09-29T09:42:39;13.90;99.90
1297;DHT22;641;48.492;9.184;2022-09-29T09:45:11;14.10;99.90
1297;DHT22;641;48.492;9.184;2022-09-29T09:50:35;14.30;99.90
1297;DHT22;641;48.492;9.184;2022-09-29T09:53:26;14.10;99.90
1297;DHT22;641;48.492;9.184;2022-09-29T09:56:28;14.10;99.90
1297;DHT22;641;48.492;9.184;2022-09-29T10:01:50;14.10;99.90
1297;DHT22;641;48.492;9.184;2022-09-29T10:04:15;14.10;99.90
1297;DHT22;641;48.492;9.184;2022-09-29T10:06:41;14.20;99.90
1297;DHT22;641;48.492;9.184;2022-09-29T10:09:12;14.20;99.90
1297;DHT22;641;48.492;9.184;2022-09-29T10:11:40;14.30;99.90
1297;DHT22;641;48.492;9.184;2022-09-29T10:14:32;14.80;99.90
1297;DHT22;641;48.492;9.184;2022-09-29T10:17:05;14.80;99.90
1297;DHT22;641;48.492;9.184;2022-09-29T10:22:19;14.30;99.90
1297;DHT22;641;48.492;9.184;2022-09-29T10:24:45;14.30;99.90
1297;DHT22;641;48.492;9.184;2022-09-29T10:27:17;14.50;99.90
1297;DHT22;641;48.492;9.184;2022-09-29T10:29:47;14.60;99.90
1297;DHT22;641;48.492;9.184;2022-09-29T10:32:22;14.60;99.90
1297;DHT22;641;48.492;9.184;2022-09-29T10:34:52;14.50;99.90
1297;DHT22;641;48.492;9.184;2022-09-29T10:37:22;14.90;99.90
1297;DHT22;641;48.492;9.184;2022-09-29T10:39:50;14.80;99.90
1297;DHT22;641;48.492;9.184;2022-09-29T10:42:24;14.80;99.90
1297;DHT22;641;48.492;9.184;2022-09-29T10:44:53;14.70;99.90
1297;DHT22;641;48.492;9.184;2022-09-29T10:47:21;14.90;99.90
1297;DHT22;641;48.492;9.184;2022-09-29T10:49:47;15.00;99.90
1297;DHT22;641;48.492;9.184;2022-09-29T10:54:57;14.90;99.90
1297;DHT22;641;48.492;9.184;2022-09-29T10:57:28;15.00;99.90
1297;DHT22;641;48.492;9.184;2022-09-29T10:59:56;15.40;99.90
1297;DHT22;641;48.492;9.184;2022-09-29T11:02:29;15.70;99.90
1297;DHT22;641;48.492;9.184;2022-09-29T11:05:00;15.30;99.90
1297;DHT22;641;48.492;9.184;2022-09-29T11:07:27;15.30;99.90
1297;DHT22;641;48.492;9.184;2022-09-29T11:09:53;15.20;99.90
1297;DHT22;641;48.492;9.184;2022-09-29T11:12:29;15.70;99.90
1297;DHT22;641;48.492;9.184;2022-09-29T11:14:56;15.90;99.90
1297;DHT22;641;48.492;9.184;2022-09-29T11:17:24;16.00;99.90
1297;DHT22;641;48.492;9.184;2022-09-29T11:19:51;15.60;99.90
1297;DHT22;641;48.492;9.184;2022-09-29T11:22:55;15.90;99.90
1297;DHT22;641;48.492;9.184;2022-09-29T11:25:45;15.50;99.90
1297;DHT22;641;48.492;9.184;2022-09-29T11:34:04;15.40;99.80
1297;DHT22;641;48.492;9.184;2022-09-29T11:36:58;15.30;99.90
1297;DHT22;641;48.492;9.184;2022-09-29T11:44:57;15.30;99.90
1297;DHT22;641;48.492;9.184;2022-09-29T11:50:27;15.30;99.90
1297;DHT22;641;48.492;9.184;2022-09-29T11:58:20;15.70;99.90
1297;DHT22;641;48.492;9.184;2022-09-29T12:01:07;16.50;99.90
1297;DHT22;641;48.492;9.184;2022-09-29T12:12:12;14.40;99.90
1297;DHT22;641;48.492;9.184;2022-09-29T12:17:49;15.10;99.90
1297;DHT22;641;48.492;9.184;2022-09-29T12:22:49;15.90;99.90
1297;DHT22;641;48.492;9.184;2022-09-29T12:25:17;16.40;99.20
1297;DHT22;641;48.492;9.184;2022-09-29T12:27:45;16.30;98.90
1297;DHT22;641;48.492;9.184;2022-09-29T12:30:36;16.40;98.90
1297;DHT22;641;48.492;9.184;2022-09-29T12:41:24;16.30;98.10
1297;DHT22;641;48.492;9.184;2022-09-29T12:44:13;16.40;98.00
1297;DHT22;641;48.492;9.184;2022-09-29T12:46:49;16.60;98.60
1297;DHT22;641;48.492;9.184;2022-09-29T12:49:28;17.10;99.10
1297;DHT22;641;48.492;9.184;2022-09-29T12:51:56;17.00;99.00
1297;DHT22;641;48.492;9.184;2022-09-29T12:54:35;16.70;96.50
1297;DHT22;641;48.492;9.184;2022-09-29T12:57:05;16.10;96.80
1297;DHT22;641;48.492;9.184;2022-09-29T12:59:52;15.70;98.00
1297;DHT22;641;48.492;9.184;2022-09-29T13:16:37;16.30;97.20
1297;DHT22;641;48.492;9.184;2022-09-29T13:19:32;16.40;97.60
1297;DHT22;641;48.492;9.184;2022-09-29T13:22:31;16.50;97.60
1297;DHT22;641;48.492;9.184;2022-09-29T13:25:10;16.50;98.20
1297;DHT22;641;48.492;9.184;2022-09-29T13:27:40;16.90;99.00
1297;DHT22;641;48.492;9.184;2022-09-29T13:32:44;16.80;97.60
1297;DHT22;641;48.492;9.184;2022-09-29T13:35:19;16.80;97.60
1297;DHT22;641;48.492;9.184;2022-09-29T13:38:06;16.90;97.90
1297;DHT22;641;48.492;9.184;2022-09-29T13:40:33;17.40;97.10
1297;DHT22;641;48.492;9.184;2022-09-29T13:43:03;16.70;97.60
1297;DHT22;641;48.492;9.184;2022-09-29T13:48:01;17.20;96.90
1297;DHT22;641;48.492;9.184;2022-09-29T13:50:47;16.90;97.00
1297;DHT22;641;48.492;9.184;2022-09-29T13:58:32;16.90;96.10
1297;DHT22;641;48.492;9.184;2022-09-29T14:01:00;16.80;96.90
1297;DHT22;641;48.492;9.184;2022-09-29T14:03:43;17.20;96.70
1297;DHT22;641;48.492;9.184;2022-09-29T14:06:22;16.60;96.80
1297;DHT22;641;48.492;9.184;2022-09-29T14:09:36;16.50;96.40
1297;DHT22;641;48.492;9.184;2022-09-29T14:11:50;16.60;96.70
1297;DHT22;641;48.492;9.184;2022-09-29T14:14:40;16.70;96.10
1297;DHT22;641;48.492;9.184;2022-09-29T14:23:07;16.60;97.20
1297;DHT22;641;48.492;9.184;2022-09-29T14:25:49;16.70;98.20
1297;DHT22;641;48.492;9.184;2022-09-29T14:28:34;16.60;97.60
1297;DHT22;641;48.492;9.184;2022-09-29T14:31:02;16.80;96.90
1297;DHT22;641;48.492;9.184;2022-09-29T14:33:39;16.80;97.40
1297;DHT22;641;48.492;9.184;2022-09-29T14:36:15;16.30;97.50
1297;DHT22;641;48.492;9.184;2022-09-29T14:38:45;16.10;98.00
1297;DHT22;641;48.492;9.184;2022-09-29T14:49:50;16.50;97.90
1297;DHT22;641;48.492;9.184;2022-09-29T14:55:54;16.40;98.30
1297;DHT22;641;48.492;9.184;2022-09-29T14:58:35;16.50;97.30
1297;DHT22;641;48.492;9.184;2022-09-29T15:03:45;16.20;99.00
1297;DHT22;641;48.492;9.184;2022-09-29T15:06:16;16.10;97.10
1297;DHT22;641;48.492;9.184;2022-09-29T15:08:59;16.20;97.20
1297;DHT22;641;48.492;9.184;2022-09-29T15:11:35;16.10;97.50
1297;DHT22;641;48.492;9.184;2022-09-29T15:14:23;16.20;97.30
1297;DHT22;641;48.492;9.184;2022-09-29T15:25:44;16.40;97.60
1297;DHT22;641;48.492;9.184;2022-09-29T15:30:49;16.30;97.70
1297;DHT22;641;48.492;9.184;2022-09-29T15:33:25;16.00;97.80
1297;DHT22;641;48.492;9.184;2022-09-29T15:36:01;16.00;98.40
1297;DHT22;641;48.492;9.184;2022-09-29T15:41:14;15.30;97.90
1297;DHT22;641;48.492;9.184;2022-09-29T15:43:55;15.70;98.50
1297;DHT22;641;48.492;9.184;2022-09-29T15:46:39;15.30;98.70
1297;DHT22;641;48.492;9.184;2022-09-29T15:49:21;15.50;99.00
1297;DHT22;641;48.492;9.184;2022-09-29T15:52:11;15.70;98.50
1297;DHT22;641;48.492;9.184;2022-09-29T15:54:40;15.90;98.90
1297;DHT22;641;48.492;9.184;2022-09-29T16:00:40;16.00;98.50
1297;DHT22;641;48.492;9.184;2022-09-29T16:03:20;16.10;99.00
1297;DHT22;641;48.492;9.184;2022-09-29T16:06:13;16.00;99.70
1297;DHT22;641;48.492;9.184;2022-09-29T16:08:47;16.00;99.80
1297;DHT22;641;48.492;9.184;2022-09-29T16:11:26;16.10;99.50
1297;DHT22;641;48.492;9.184;2022-09-29T16:14:00;16.10;99.00
1297;DHT22;641;48.492;9.184;2022-09-29T16:16:43;16.10;98.70
1297;DHT22;641;48.492;9.184;2022-09-29T16:21:42;16.10;98.80
1297;DHT22;641;48.492;9.184;2022-09-29T16:24:15;16.10;98.90
1297;DHT22;641;48.492;9.184;2022-09-29T16:26:49;16.00;98.80
1297;DHT22;641;48.492;9.184;2022-09-29T16:29:29;16.00;98.80
1297;DHT22;641;48.492;9.184;2022-09-29T16:31:56;15.80;98.60
1297;DHT22;641;48.492;9.184;2022-09-29T16:34:31;16.00;99.10
1297;DHT22;641;48.492;9.184;2022-09-29T16:36:59;15.60;99.00
1297;DHT22;641;48.492;9.184;2022-09-29T16:39:47;15.60;99.10
1297;DHT22;641;48.492;9.184;2022-09-29T16:42:24;15.60;99.10
1297;DHT22;641;48.492;9.184;2022-09-29T16:44:52;15.90;99.20
1297;DHT22;641;48.492;9.184;2022-09-29T16:47:25;15.50;99.20
1297;DHT22;641;48.492;9.184;2022-09-29T16:49:56;15.40;99.20
1297;DHT22;641;48.492;9.184;2022-09-29T16:52:25;15.30;99.30
1297;DHT22;641;48.492;9.184;2022-09-29T17:00:23;15.20;99.80
1297;DHT22;641;48.492;9.184;2022-09-29T17:02:55;15.60;99.90
1297;DHT22;641;48.492;9.184;2022-09-29T17:05:23;15.20;99.90
1297;DHT22;641;48.492;9.184;2022-09-29T17:07:58;15.20;99.90
1297;DHT22;641;48.492;9.184;2022-09-29T17:10:24;15.10;99.90
1297;DHT22;641;48.492;9.184;2022-09-29T17:12:50;15.50;99.90
1297;DHT22;641;48.492;9.184;2022-09-29T17:15:17;15.10;99.90
1297;DHT22;641;48.492;9.184;2022-09-29T17:17:47;15.00;99.90
1297;DHT22;641;48.492;9.184;2022-09-29T17:20:19;15.00;99.90
1297;DHT22;641;48.492;9.184;2022-09-29T17:22:46;15.00;99.90
1297;DHT22;641;48.492;9.184;2022-09-29T17:25:16;15.00;99.90
1297;DHT22;641;48.492;9.184;2022-09-29T17:27:43;14.90;99.90
1297;DHT22;641;48.492;9.184;2022-09-29T17:30:29;14.90;99.90
1297;DHT22;641;48.492;9.184;2022-09-29T17:32:57;15.30;99.90
1297;DHT22;641;48.492;9.184;2022-09-29T17:35:30;14.80;99.90
1297;DHT22;641;48.492;9.184;2022-09-29T17:37:59;14.70;99.90
1297;DHT22;641;48.492;9.184;2022-09-29T17:40:28;14.70;99.90
1297;DHT22;641;48.492;9.184;2022-09-29T17:42:56;14.70;99.90
1297;DHT22;641;48.492;9.184;2022-09-29T17:45:27;14.70;99.90
1297;DHT22;641;48.492;9.184;2022-09-29T17:48:01;14.70;99.90
1297;DHT22;641;48.492;9.184;2022-09-29T17:50:45;14.60;99.90
1297;DHT22;641;48.492;9.184;2022-09-29T17:53:12;14.60;99.90
1297;DHT22;641;48.492;9.184;2022-09-29T17:55:45;14.50;99.90
1297;DHT22;641;48.492;9.184;2022-09-29T17:58:15;14.60;99.90
1297;DHT22;641;48.492;9.184;2022-09-29T18:00:43;14.60;99.90
1297;DHT22;641;48.492;9.184;2022-09-29T18:03:13;15.00;99.90
1297;DHT22;641;48.492;9.184;2022-09-29T18:05:41;14.70;99.90
1297;DHT22;641;48.492;9.184;2022-09-29T18:08:14;14.70;99.90
1297;DHT22;641;48.492;9.184;2022-09-29T18:10:43;14.70;99.90
1297;DHT22;641;48.492;9.184;2022-09-29T18:13:09;14.70;99.90
1297;DHT22;641;48.492;9.184;2022-09-29T18:15:37;14.90;99.90
1297;DHT22;641;48.492;9.184;2022-09-29T18:18:04;14.70;99.90
1297;DHT22;641;48.492;9.184;2022-09-29T18:20:33;14.70;99.90
1297;DHT22;641;48.492;9.184;2022-09-29T18:23:01;15.10;99.90
1297;DHT22;641;48.492;9.184;2022-09-29T18:25:29;14.70;99.90
1297;DHT22;641;48.492;9.184;2022-09-29T18:27:55;14.70;99.90
1297;DHT22;641;48.492;9.184;2022-09-29T18:30:31;14.70;99.90
1297;DHT22;641;48.492;9.184;2022-09-29T18:33:00;14.70;99.90
1297;DHT22;641;48.492;9.184;2022-09-29T18:35:30;14.60;99.90
1297;DHT22;641;48.492;9.184;2022-09-29T18:37:56;14.60;99.90
1297;DHT22;641;48.492;9.184;2022-09-29T18:40:23;14.60;99.90
1297;DHT22;641;48.492;9.184;2022-09-29T18:42:51;15.00;99.90
1297;DHT22;641;48.492;9.184;2022-09-29T18:45:22;14.60;99.90
1297;DHT22;641;48.492;9.184;2022-09-29T18:47:50;14.60;99.90
1297;DHT22;641;48.492;9.184;2022-09-29T18:50:22;14.80;99.90
1297;DHT22;641;48.492;9.184;2022-09-29T18:52:50;14.60;99.90
1297;DHT22;641;48.492;9.184;2022-09-29T18:55:17;14.60;99.90
1297;DHT22;641;48.492;9.184;2022-09-29T18:57:44;14.60;99.90
1297;DHT22;641;48.492;9.184;2022-09-29T19:00:11;14.50;99.90
1297;DHT22;641;48.492;9.184;2022-09-29T19:02:40;14.40;99.90
1297;DHT22;641;48.492;9.184;2022-09-29T19:05:09;14.40;99.90
1297;DHT22;641;48.492;9.184;2022-09-29T19:07:35;14.40;99.90
1297;DHT22;641;48.492;9.184;2022-09-29T19:10:00;14.40;99.90
1297;DHT22;641;48.492;9.184;2022-09-29T19:12:26;14.30;99.90
1297;DHT22;641;48.492;9.184;2022-09-29T19:14:54;14.70;99.90
1297;DHT22;641;48.492;9.184;2022-09-29T19:17:22;14.20;99.90
1297;DHT22;641;48.492;9.184;2022-09-29T19:19:50;14.20;99.90
1297;DHT22;641;48.492;9.184;2022-09-29T19:22:16;14.20;99.90
1297;DHT22;641;48.492;9.184;2022-09-29T19:24:41;14.20;99.90
1297;DHT22;641;48.492;9.184;2022-09-29T19:27:07;14.40;99.90
1297;DHT22;641;48.492;9.184;2022-09-29T19:29:33;14.70;99.90
1297;DHT22;641;48.492;9.184;2022-09-29T19:31:59;14.60;99.90